createdAt,value
2022-11-01T00:01:33.562Z,97919.64
2022-11-01T00:04:06.817Z,97915.70
2022-11-01T00:06:41.057Z,97916.57
2022-11-01T00:09:13.877Z,97915.39
2022-11-01T00:11:47.485Z,97917.63
2022-11-01T00:14:22.397Z,97914.70
2022-11-01T00:16:55.080Z,97908.71
2022-11-01T00:19:28.034Z,97908.23
2022-11-01T00:22:00.609Z,97906.86
2022-11-01T00:24:34.056Z,97903.44
2022-11-01T00:27:07.167Z,97898.67
2022-11-01T00:29:39.877Z,97898.40
2022-11-01T00:32:12.577Z,97896.48
2022-11-01T00:34:45.177Z,97895.45
2022-11-01T00:37:17.937Z,97898.30
2022-11-01T00:39:50.828Z,97905.45
2022-11-01T00:42:23.327Z,97900.77
2022-11-01T00:44:56.127Z,97902.12
2022-11-01T00:47:28.889Z,97899.59
2022-11-01T00:50:01.428Z,97895.46
2022-11-01T00:52:34.947Z,97894.65
2022-11-01T00:55:08.679Z,97890.59
2022-11-01T00:57:41.496Z,97888.73
2022-11-01T01:00:16.959Z,97890.02
2022-11-01T01:03:28.852Z,97892.47
2022-11-01T01:06:01.535Z,97893.36
2022-11-01T01:08:33.822Z,97895.02
2022-11-01T01:11:06.570Z,97894.87
2022-11-01T01:13:38.741Z,97894.58
2022-11-01T01:16:15.641Z,97891.02
2022-11-01T01:18:48.183Z,97885.27
2022-11-01T01:21:20.593Z,97880.14
2022-11-01T01:23:54.982Z,97883.55
2022-11-01T01:26:37.072Z,97884.20
2022-11-01T01:29:09.152Z,97880.11
2022-11-01T01:31:41.582Z,97877.84
2022-11-01T01:34:14.251Z,97869.05
2022-11-01T01:36:48.242Z,97865.58
2022-11-01T01:39:20.220Z,97862.83
2022-11-01T01:41:58.127Z,97852.30
2022-11-01T01:45:16.039Z,97844.71
2022-11-01T01:47:50.980Z,97838.90
2022-11-01T01:50:27.352Z,97839.44
2022-11-01T01:53:04.981Z,97839.59
2022-11-01T01:55:43.264Z,97838.40
2022-11-01T01:58:19.050Z,97835.80
2022-11-01T07:01:39.337Z,97762.91
2022-11-01T07:07:42.450Z,97765.90
2022-11-01T07:10:33.337Z,97770.70
2022-11-01T07:13:11.778Z,97776.16
2022-11-01T07:15:44.768Z,97780.75
2022-11-01T07:18:17.512Z,97775.86
2022-11-01T07:20:50.551Z,97775.80
2022-11-01T07:23:23.505Z,97771.79
2022-11-01T07:25:56.730Z,97774.78
2022-11-01T07:28:29.486Z,97773.03
2022-11-01T07:31:02.843Z,97775.19
2022-11-01T07:33:36.298Z,97771.93
2022-11-01T07:36:10.268Z,97771.59
2022-11-01T07:38:48.687Z,97773.45
2022-11-01T07:41:21.347Z,97769.14
2022-11-01T07:43:54.833Z,97763.65
2022-11-01T07:46:26.347Z,97761.67
2022-11-01T07:49:00.809Z,97765.93
2022-11-01T07:51:43.552Z,97771.90
2022-11-01T07:54:18.328Z,97781.85
2022-11-01T07:56:52.205Z,97775.77
2022-11-01T07:59:25.778Z,97772.34
2022-11-01T08:02:03.807Z,97767.08
2022-11-01T08:04:40.224Z,97765.80
2022-11-01T08:07:13.749Z,97768.33
2022-11-01T08:09:49.579Z,97767.73
2022-11-01T08:12:25.868Z,97776.08
2022-11-01T08:15:00.658Z,97771.37
2022-11-01T08:17:35.138Z,97775.84
2022-11-01T08:20:09.018Z,97770.97
2022-11-01T08:23:02.041Z,97769.88
2022-11-01T08:25:33.748Z,97775.46
2022-11-01T08:28:11.378Z,97778.45
2022-11-01T08:30:48.518Z,97779.77
2022-11-01T08:33:21.159Z,97776.79
2022-11-01T08:35:54.409Z,97772.05
2022-11-01T08:38:29.036Z,97769.47
2022-11-01T08:41:02.824Z,97772.41
2022-11-01T08:43:39.618Z,97764.31
2022-11-01T08:46:13.368Z,97765.34
2022-11-01T08:48:49.211Z,97761.52
2022-11-01T08:51:26.507Z,97761.38
2022-11-01T08:54:00.257Z,97761.77
2022-11-01T08:56:33.038Z,97760.50
2022-11-01T08:59:05.977Z,97756.85
2022-11-01T09:01:39.287Z,97757.52
2022-11-01T09:04:12.924Z,97756.73
2022-11-01T09:06:43.651Z,97762.69
2022-11-01T09:09:16.459Z,97763.48
2022-11-01T09:11:53.369Z,97774.59
2022-11-01T09:14:26.889Z,97779.59
2022-11-01T09:17:02.088Z,97776.33
2022-11-01T09:19:39.228Z,97781.95
2022-11-01T09:22:12.008Z,97787.21
2022-11-01T09:24:46.538Z,97792.04
2022-11-01T09:27:20.729Z,97794.64
2022-11-01T09:29:53.539Z,97796.99
2022-11-01T09:32:28.941Z,97792.48
2022-11-01T09:35:01.508Z,97789.96
2022-11-01T09:37:34.848Z,97795.40
2022-11-01T09:40:09.539Z,97796.91
2022-11-01T09:42:44.859Z,97798.70
2022-11-01T09:45:22.999Z,97803.85
2022-11-01T09:48:01.281Z,97792.52
2022-11-01T09:50:36.879Z,97785.42
2022-11-01T09:53:18.059Z,97790.77
2022-11-01T09:55:57.109Z,97787.70
2022-11-01T09:58:42.971Z,97777.26
2022-11-01T10:01:31.544Z,97767.27
2022-11-01T10:04:21.318Z,97763.71
2022-11-01T10:06:59.819Z,97762.08
2022-11-01T10:09:42.028Z,97759.66
2022-11-01T10:12:27.162Z,97755.05
2022-11-01T10:15:13.257Z,97759.15
2022-11-01T10:17:55.980Z,97769.02
2022-11-01T10:20:40.334Z,97777.27
2022-11-01T10:23:17.878Z,97777.14
2022-11-01T10:25:55.257Z,97776.34
2022-11-01T10:28:33.468Z,97776.04
2022-11-01T10:31:12.468Z,97776.77
2022-11-01T10:33:54.259Z,97773.88
2022-11-01T10:36:31.569Z,97775.70
2022-11-01T10:39:53.337Z,97775.01
2022-11-01T10:42:15.464Z,97776.95
2022-11-01T10:44:55.731Z,97776.86
2022-11-01T10:47:30.392Z,97776.97
2022-11-01T10:50:07.837Z,97774.58
2022-11-01T10:52:51.777Z,97765.46
2022-11-01T10:55:32.139Z,97759.02
2022-11-01T10:58:07.896Z,97758.55
2022-11-01T11:00:48.782Z,97757.97
2022-11-01T11:03:27.166Z,97757.69
2022-11-01T11:06:02.259Z,97755.54
2022-11-01T11:08:40.619Z,97753.66
2022-11-01T11:11:16.664Z,97755.77
2022-11-01T11:13:53.653Z,97750.14
2022-11-01T11:16:34.628Z,97744.43
2022-11-01T11:19:21.127Z,97745.37
2022-11-01T11:21:55.618Z,97746.53
2022-11-01T11:24:33.069Z,97744.73
2022-11-01T11:27:14.231Z,97748.56
2022-11-01T11:29:51.589Z,97746.45
2022-11-01T11:32:27.592Z,97744.75
2022-11-01T11:35:03.488Z,97739.56
2022-11-01T11:37:40.518Z,97730.36
2022-11-01T11:40:30.460Z,97726.36
2022-11-01T11:43:24.845Z,97723.80
2022-11-01T11:46:09.388Z,97722.77
2022-11-01T11:48:50.378Z,97728.66
2022-11-01T11:51:23.820Z,97730.15
2022-11-01T11:54:19.921Z,97729.89
2022-11-01T11:56:55.122Z,97729.11
2022-11-01T11:59:34.180Z,97727.77
2022-11-01T12:02:21.324Z,97734.41
2022-11-01T12:05:00.044Z,97736.75
2022-11-01T12:07:38.178Z,97738.80
2022-11-01T12:10:34.641Z,97727.73
2022-11-01T12:13:24.239Z,97725.50
2022-11-01T12:16:11.380Z,97717.77
2022-11-01T12:18:54.041Z,97721.06
2022-11-01T12:21:30.109Z,97720.81
2022-11-01T12:24:11.046Z,97715.54
2022-11-01T12:26:46.208Z,97718.64
2022-11-01T12:29:30.568Z,97714.82
2022-11-01T12:32:09.029Z,97715.55
2022-11-01T12:34:46.139Z,97719.56
2022-11-01T12:37:23.235Z,97720.49
2022-11-01T12:40:02.339Z,97718.41
2022-11-01T12:42:41.863Z,97714.88
2022-11-01T12:45:26.618Z,97722.77
2022-11-01T12:48:02.351Z,97729.42
2022-11-01T12:50:43.098Z,97724.09
2022-11-01T12:53:21.591Z,97724.81
2022-11-01T12:55:54.969Z,97719.77
2022-11-01T12:58:33.505Z,97713.44
2022-11-01T13:01:23.033Z,97714.41
2022-11-01T13:04:04.822Z,97713.64
2022-11-01T13:07:05.378Z,97717.17
2022-11-01T13:09:50.878Z,97723.06
2022-11-01T13:12:33.048Z,97718.49
2022-11-01T13:15:13.070Z,97719.85
2022-11-01T13:17:54.619Z,97723.02
2022-11-01T13:20:36.110Z,97725.23
2022-11-01T13:23:18.470Z,97722.97
2022-11-01T13:25:57.598Z,97732.08
2022-11-01T13:28:49.638Z,97731.13
2022-11-01T13:31:32.668Z,97734.22
2022-11-01T13:34:18.639Z,97729.05
2022-11-01T13:36:59.887Z,97731.57
2022-11-01T13:39:40.949Z,97733.38
2022-11-01T13:42:17.991Z,97731.70
2022-11-01T13:44:54.556Z,97730.70
2022-11-01T13:47:42.068Z,97731.61
2022-11-01T13:50:39.638Z,97732.48
2022-11-01T13:53:19.428Z,97738.89
2022-11-01T13:55:59.538Z,97738.14
2022-11-01T13:58:34.028Z,97738.14
2022-11-01T14:01:30.551Z,97736.43
2022-11-01T14:04:43.799Z,97738.73
2022-11-01T14:07:20.330Z,97741.73
2022-11-01T14:09:53.629Z,97744.13
2022-11-01T14:12:35.057Z,97749.73
2022-11-01T14:15:28.869Z,97746.39
2022-11-01T14:18:10.328Z,97748.98
2022-11-01T14:20:54.651Z,97745.86
2022-11-01T14:24:08.218Z,97742.64
2022-11-01T14:26:49.119Z,97743.13
2022-11-01T14:29:21.769Z,97744.94
2022-11-01T14:31:56.498Z,97744.66
2022-11-01T14:34:41.209Z,97744.84
2022-11-01T14:37:27.770Z,97748.21
2022-11-01T14:40:18.859Z,97750.73
2022-11-01T14:42:53.940Z,97754.94
2022-11-01T14:45:39.129Z,97758.08
2022-11-01T14:48:18.939Z,97755.95
2022-11-01T14:50:59.409Z,97756.54
2022-11-01T14:53:35.768Z,97757.35
2022-11-01T14:56:19.445Z,97758.06
2022-11-01T14:59:15.859Z,97762.88
2022-11-01T15:01:55.940Z,97767.84
2022-11-01T15:04:35.194Z,97768.80
2022-11-01T15:07:20.233Z,97773.11
2022-11-01T15:10:04.334Z,97773.46
2022-11-01T15:12:47.779Z,97775.89
2022-11-01T15:15:25.529Z,97776.84
2022-11-01T15:18:01.708Z,97774.12
2022-11-01T15:20:40.790Z,97778.35
2022-11-01T15:23:30.562Z,97780.40
2022-11-01T15:26:08.148Z,97778.02
2022-11-01T15:28:44.920Z,97779.18
2022-11-01T15:31:17.660Z,97786.00
2022-11-01T15:34:02.519Z,97787.10
2022-11-01T15:36:40.291Z,97784.44
2022-11-01T15:39:27.701Z,97787.25
2022-11-01T15:42:02.437Z,97795.23
2022-11-01T15:44:35.266Z,97793.46
2022-11-01T15:47:10.149Z,97795.60
2022-11-01T15:49:50.389Z,97800.13
2022-11-01T15:52:26.691Z,97799.74
2022-11-01T15:55:07.068Z,97799.10
2022-11-01T15:57:43.458Z,97801.11
2022-11-01T16:00:24.481Z,97799.41
2022-11-01T16:03:06.212Z,97802.41
2022-11-01T16:05:45.267Z,97805.19
2022-11-01T16:08:26.538Z,97807.94
2022-11-01T16:10:59.679Z,97812.39
2022-11-01T16:13:32.707Z,97812.85
2022-11-01T16:16:12.359Z,97809.23
2022-11-01T16:18:47.849Z,97811.02
2022-11-01T16:21:31.914Z,97813.63
2022-11-01T16:24:15.895Z,97815.56
2022-11-01T16:27:01.689Z,97819.77
2022-11-01T16:29:45.267Z,97823.68
2022-11-01T16:32:25.257Z,97824.98
2022-11-01T16:35:00.608Z,97828.10
2022-11-01T16:37:38.379Z,97825.61
2022-11-01T16:40:33.779Z,97828.80
2022-11-01T16:43:10.568Z,97828.62
2022-11-01T16:45:43.379Z,97830.98
2022-11-01T16:48:25.909Z,97833.77
2022-11-01T16:51:00.640Z,97837.58
2022-11-01T16:53:33.577Z,97843.34
2022-11-01T16:56:35.522Z,97846.70
2022-11-01T16:59:10.209Z,97848.85
2022-11-01T17:01:42.974Z,97847.45
2022-11-01T17:04:16.910Z,97849.64
2022-11-01T17:06:50.759Z,97854.73
2022-11-01T17:09:25.809Z,97855.71
2022-11-01T17:12:05.870Z,97856.35
2022-11-01T17:17:25.048Z,97862.66
2022-11-01T17:20:04.502Z,97861.40
2022-11-01T17:22:39.420Z,97866.19
2022-11-01T17:25:20.538Z,97870.60
2022-11-01T17:27:53.557Z,97871.06
2022-11-01T17:30:26.867Z,97870.42
2022-11-01T17:32:57.688Z,97869.52
2022-11-01T17:35:31.179Z,97866.73
2022-11-01T17:38:05.345Z,97866.75
2022-11-01T17:40:38.272Z,97866.67
2022-11-01T17:43:17.874Z,97866.04
2022-11-01T17:45:51.830Z,97871.38
2022-11-01T17:48:24.409Z,97877.65
2022-11-01T17:51:00.842Z,97877.84
2022-11-01T17:53:33.583Z,97876.33
2022-11-01T17:56:07.122Z,97880.23
2022-11-01T17:58:38.239Z,97877.10
2022-11-01T18:01:11.198Z,97878.81
2022-11-01T18:03:42.358Z,97880.59
2022-11-01T18:06:15.109Z,97881.64
2022-11-01T18:08:51.290Z,97880.57
2022-11-01T18:11:38.610Z,97884.13
2022-11-01T18:14:17.711Z,97884.38
2022-11-01T18:16:54.779Z,97890.42
2022-11-01T18:19:47.410Z,97892.88
2022-11-01T18:22:32.323Z,97893.86
2022-11-01T18:25:17.699Z,97895.52
2022-11-01T18:27:51.519Z,97895.65
2022-11-01T18:30:26.438Z,97894.41
2022-11-01T18:33:05.259Z,97894.48
2022-11-01T18:35:42.271Z,97893.64
2022-11-01T18:38:26.369Z,97892.64
2022-11-01T18:41:02.020Z,97895.31
2022-11-01T18:43:38.450Z,97890.36
2022-11-01T18:46:26.265Z,97890.70
2022-11-01T18:49:02.650Z,97893.64
2022-11-01T18:51:38.833Z,97894.69
2022-11-01T18:54:39.298Z,97898.10
2022-11-01T18:57:26.830Z,97898.70
2022-11-01T19:00:14.190Z,97905.11
2022-11-01T19:02:58.659Z,97903.95
2022-11-01T19:05:37.640Z,97906.04
2022-11-01T19:08:36.441Z,97905.41
2022-11-01T19:11:24.269Z,97907.50
2022-11-01T19:14:07.567Z,97904.04
2022-11-01T19:16:42.415Z,97904.07
2022-11-01T19:19:18.888Z,97908.38
2022-11-01T19:21:53.263Z,97909.59
2022-11-01T19:24:36.291Z,97908.75
2022-11-01T19:27:23.390Z,97903.27
2022-11-01T19:29:59.561Z,97909.05
2022-11-01T19:32:39.079Z,97912.70
2022-11-01T19:35:21.744Z,97912.48
2022-11-01T19:37:58.580Z,97916.13
2022-11-01T19:40:33.553Z,97919.29
2022-11-01T19:43:17.429Z,97920.99
2022-11-01T19:45:51.695Z,97919.27
2022-11-01T19:48:29.579Z,97920.98
2022-11-01T19:51:04.080Z,97925.81
2022-11-01T19:53:36.079Z,97925.46
2022-11-01T19:56:15.210Z,97930.77
2022-11-01T19:58:53.545Z,97932.29
2022-11-01T20:01:37.629Z,97934.67
2022-11-01T20:04:14.267Z,97937.27
2022-11-01T20:06:56.422Z,97935.13
2022-11-01T20:09:40.189Z,97937.00
2022-11-01T20:12:12.998Z,97940.10
2022-11-01T20:15:09.158Z,97940.25
2022-11-01T20:17:42.769Z,97941.11
2022-11-01T20:20:18.782Z,97944.56
2022-11-01T20:23:05.991Z,97942.48
2022-11-01T20:25:53.160Z,97946.94
2022-11-01T20:28:27.552Z,97949.21
2022-11-01T20:31:01.978Z,97951.27
2022-11-01T20:33:38.716Z,97954.25
2022-11-01T20:36:14.177Z,97953.41
2022-11-01T20:38:48.209Z,97954.47
2022-11-01T20:41:21.541Z,97961.02
2022-11-01T20:43:54.668Z,97962.23
2022-11-01T20:46:27.478Z,97961.46
2022-11-01T20:49:00.021Z,97964.41
2022-11-01T20:51:32.901Z,97961.50
2022-11-01T20:54:06.047Z,97962.21
2022-11-01T20:56:40.832Z,97963.21
2022-11-01T20:59:15.820Z,97965.83
2022-11-01T21:01:52.140Z,97973.25
2022-11-01T21:04:25.349Z,97970.84
2022-11-01T21:06:59.029Z,97967.41
2022-11-01T21:09:37.270Z,97972.58
2022-11-01T21:12:34.138Z,97972.24
2022-11-01T21:15:31.413Z,97969.30
2022-11-01T21:18:25.471Z,97970.88
2022-11-01T21:20:57.189Z,97975.85
2022-11-01T21:23:35.899Z,97976.64
2022-11-01T21:26:18.439Z,97978.84
2022-11-01T21:28:53.781Z,97980.36
2022-11-01T21:31:32.225Z,97980.72
2022-11-01T21:34:20.619Z,97981.61
2022-11-01T21:36:54.337Z,97980.98
2022-11-01T21:39:25.798Z,97982.04
2022-11-01T21:42:02.936Z,97979.70
2022-11-01T21:44:40.501Z,97979.36
2022-11-01T21:47:21.226Z,97983.73
2022-11-01T21:49:54.558Z,97977.84
2022-11-01T21:52:27.508Z,97974.71
2022-11-01T21:54:59.979Z,97976.64
2022-11-01T21:57:35.678Z,97975.95
2022-11-01T22:00:09.721Z,97974.20
2022-11-01T22:02:43.673Z,97978.98
2022-11-01T22:05:16.560Z,97979.52
2022-11-01T22:07:49.449Z,97983.84
2022-11-01T22:10:22.020Z,97987.08
2022-11-01T22:12:54.860Z,97990.38
2022-11-01T22:15:27.528Z,97991.26
2022-11-01T22:18:00.688Z,97987.22
2022-11-01T22:20:33.298Z,97985.98
2022-11-01T22:23:06.183Z,97981.95
2022-11-01T22:25:39.039Z,97987.13
2022-11-01T22:28:11.838Z,97983.30
2022-11-01T22:30:44.638Z,97980.84
2022-11-01T22:33:17.478Z,97978.40
2022-11-01T22:35:50.688Z,97974.73
2022-11-01T22:38:24.835Z,97977.44
2022-11-01T22:41:01.132Z,97973.61
2022-11-01T22:43:35.262Z,97975.59
2022-11-01T22:46:18.716Z,97971.93
2022-11-01T22:48:54.750Z,97975.18
2022-11-01T22:51:33.759Z,97973.44
2022-11-01T22:54:20.657Z,97975.09
2022-11-01T22:57:01.536Z,97978.48
2022-11-01T22:59:39.841Z,97980.52
2022-11-01T23:02:34.206Z,97984.98
2022-11-01T23:05:25.599Z,97985.63
2022-11-01T23:08:03.476Z,97985.44
2022-11-01T23:10:39.768Z,97984.39
2022-11-01T23:13:39.498Z,97984.70
2022-11-01T23:16:25.449Z,97985.41
2022-11-01T23:19:01.751Z,97983.35
2022-11-01T23:21:36.398Z,97985.06
2022-11-01T23:24:10.649Z,97981.73
2022-11-01T23:26:43.337Z,97979.50
2022-11-01T23:29:16.119Z,97977.03
2022-11-01T23:31:48.904Z,97979.91
2022-11-01T23:34:21.588Z,97977.33
2022-11-01T23:36:55.075Z,97976.47
2022-11-01T23:39:32.388Z,97978.54
2022-11-01T23:42:05.078Z,97975.23
2022-11-01T23:44:41.278Z,97975.40
2022-11-01T23:47:25.378Z,97979.72
2022-11-01T23:50:02.889Z,97978.33
2022-11-01T23:52:43.149Z,97978.48
2022-11-01T23:55:27.200Z,97981.71
2022-11-01T23:58:01.970Z,97985.16
